Walla Walla Regional Airport
KALW : now visible

Airfield :











YOU CAN JOIN US ON...

 
LOGIN :

Register | Disclaimer

   EN    FR    IT 

 









Legend :    VFR   Marginal VFR   IFR   Intensive IFR   Very Intensive IFR
Visi :
Ceiling :
>= 8 km
>= 3000ft
5 to 8 km
1000 to 3000 ft
1500m to 5 km
500 to 1000 ft
800 to 1500m
200 to 500 ft
< 800m
< 200 ft
Symbols :   Thunderstorms  Fog  Heavy snow  Heavy precipitations  Wind > 20 kt






- Airport Elevation : 1194 ft
- IATA code : ALW


KALW - Walla Walla Regional

CURRENT METAR :
  • 240953Z AUTO 16008KT 10SM BKN060 02/01 A3017 RMK AO2 SLP224 T00220006

EXPIRED METARs :
  • 240853Z AUTO 15003KT 4SM BR SCT028 OVC035 02/02 A3017 RMK AO2 SLP226 T00170017 53005
  • 240833Z AUTO 14005KT 2SM BR SCT001 OVC027 02/01 A3017 RMK AO2 T00170011
  • 240822Z AUTO 14006KT 1 3/4SM R20/6000VP6000FT BR BKN001 OVC026 02/01 A3017 RMK AO2 T00170011
  • 240807Z AUTO 15004KT 2SM BR BKN001 OVC026 02/01 A3017 RMK AO2 T00170011
  • 240753Z AUTO 14005KT 1SM R20/4000VP6000FT BR OVC002 02/01 A3017 RMK AO2 SLP225 T00170011 400671006
  • 240735Z AUTO 16003KT 1/2SM R20/3000V5000FT FG VV002 02/02 A3017 RMK AO2 T00170017
  • 240727Z AUTO 00000KT 1SM R20/3000V5500FT BR VV002 02/01 A3017 RMK AO2 T00170011
  • 240715Z AUTO 15003KT 1/2SM R20/2000V4000FT FG VV002 02/02 A3016 RMK AO2 T00170017
  • 240704Z AUTO 18003KT 1/2SM R20/1800V2200FT FG VV002 02/02 A3016 RMK AO2 T00170017

TAF KALW
Valid from the 24 at 09:00 until the 25 at 06:00 UTC


240903Z 2409/2506 21005KT 4SM BR SCT020 OVC040
TEMPO 2409/2410 1/2SM FG VV002
FM241500 16005KT 1/4SM FG BKN003
FM241800 17005KT 3SM BR OVC015
FM242100 18007KT P6SM OVC060
KZSE FIR / North America



MET'MAP, your aeronautical weather chart ! - Copyright ORBIFLY December 2007 - Disclaimer

ORBIFLY MET'MAP TEAM :

Programming & Development : Alexandra Zaïnal
Concept & original design : Baudouin d'Aumeries
Assistance for programming : Marc-Olivier Méhu
Technical & hardware support : Manuel Goepfert

Contact : metmap@orbifly.com




SOURCES & CREDITS :

   NOAA       Earth
Advisory